Time;durP1;ratioP1;P1;durP2;ratioP2;P2;SDS_P1;SDS_P2;PMS_P1;PMS_P2;Temp;Humidity;BMP_temperature;BMP_pressure;BME280_temperature;BME280_humidity;BME280_pressure;Samples;Min_cycle;Max_cycle;Signal;HPM_P1;HPM_P2
2022/07/08 00:01:57;;;;;;;;;4.00;3.00;;;;;17.71;59.15;102629.63;5060568;28;45410;-73
2022/07/08 00:04:22;;;;;;;;;3.33;3.00;;;;;17.63;59.17;102623.28;5060404;28;45298;-74
2022/07/08 00:06:48;;;;;;;;;2.33;2.33;;;;;17.62;59.37;102618.09;5060272;28;45288;-73
2022/07/08 00:09:14;;;;;;;;;3.33;2.67;;;;;17.56;59.35;102606.19;5039003;28;45344;-74
2022/07/08 00:11:41;;;;;;;;;5.00;3.00;;;;;17.52;59.57;102613.78;5056280;28;46652;-74
2022/07/08 00:14:06;;;;;;;;;2.67;2.67;;;;;17.49;59.42;102613.28;5060522;28;45349;-73
2022/07/08 00:16:33;;;;;;;;;4.33;3.00;;;;;17.47;59.79;102624.22;5048514;28;45486;-73
2022/07/08 00:18:59;;;;;;;;;3.00;3.00;;;;;17.45;59.59;102618.16;5060549;28;45707;-73
2022/07/08 00:21:24;;;;;;;;;4.67;3.00;;;;;17.39;59.70;102602.75;5052584;28;46011;-73
2022/07/08 00:23:50;;;;;;;;;3.00;3.00;;;;;17.38;59.32;102607.28;5041667;28;47244;-73
2022/07/08 00:26:15;;;;;;;;;3.67;3.00;;;;;17.34;59.74;102608.66;5060291;28;45324;-74
2022/07/08 00:28:40;;;;;;;;;2.33;2.33;;;;;17.33;59.89;102611.50;5060294;28;45270;-73
2022/07/08 00:31:06;;;;;;;;;4.00;4.00;;;;;17.28;59.89;102596.75;5060110;28;45594;-73
2022/07/08 00:33:31;;;;;;;;;2.00;2.00;;;;;17.26;59.71;102604.13;5060073;28;48754;-73
2022/07/08 00:35:56;;;;;;;;;3.67;3.67;;;;;17.21;60.12;102594.94;5060359;28;45353;-73
2022/07/08 00:38:22;;;;;;;;;2.67;2.67;;;;;17.20;59.85;102593.22;5060114;28;45493;-74
2022/07/08 00:40:47;;;;;;;;;4.67;3.00;;;;;17.18;60.36;102601.47;5041632;28;45958;-73
2022/07/08 00:43:48;;;;;;;;;4.67;3.00;;;;;17.15;60.42;102609.91;5059878;28;46211;-73
2022/07/08 00:46:15;;;;;;;;;5.00;5.00;;;;;17.12;60.20;102607.56;4997992;28;45378;-73
2022/07/08 00:48:41;;;;;;;;;2.67;2.67;;;;;17.09;60.33;102597.16;5047257;28;45246;-73
2022/07/08 00:51:16;;;;;;;;;5.67;3.00;;;;;17.09;60.11;102603.34;5059684;28;45574;-73
2022/07/08 00:53:49;;;;;;;;;5.00;4.00;;;;;17.03;59.90;102588.72;5059560;28;45344;-73
2022/07/08 00:56:15;;;;;;;;;5.00;3.00;;;;;16.99;60.92;102587.41;5044595;28;45830;-73
2022/07/08 00:58:41;;;;;;;;;4.00;3.33;;;;;16.98;61.11;102587.56;5041864;28;45290;-73
2022/07/08 01:01:06;;;;;;;;;3.33;3.33;;;;;16.92;60.90;102597.16;5059472;28;45292;-73
2022/07/08 01:03:32;;;;;;;;;3.33;3.33;;;;;16.87;61.33;102600.34;5059640;28;46279;-73
2022/07/08 01:05:57;;;;;;;;;2.33;2.33;;;;;16.88;61.46;102602.03;5041628;28;45727;-73
2022/07/08 01:08:23;;;;;;;;;3.00;2.00;;;;;16.82;61.74;102589.28;5059481;28;45503;-73
2022/07/08 01:10:49;;;;;;;;;5.00;4.00;;;;;16.83;61.34;102595.50;5059543;28;45403;-73
2022/07/08 01:13:16;;;;;;;;;2.33;2.33;;;;;16.83;61.65;102599.03;5059138;28;45364;-73
2022/07/08 01:15:43;;;;;;;;;4.00;3.67;;;;;16.78;61.12;102601.38;5060530;28;45287;-73
2022/07/08 01:18:08;;;;;;;;;4.67;4.00;;;;;16.73;61.13;102604.56;5046667;28;45339;-73
2022/07/08 01:20:34;;;;;;;;;4.33;3.67;;;;;16.67;61.71;102599.88;5059420;28;45339;-73
2022/07/08 01:23:00;;;;;;;;;5.33;3.67;;;;;16.66;61.72;102607.09;5059125;28;46352;-73
2022/07/08 01:25:26;;;;;;;;;3.00;3.00;;;;;16.63;61.60;102614.66;5059282;28;45450;-73
2022/07/08 01:27:51;;;;;;;;;3.00;3.00;;;;;16.55;62.18;102615.47;5038220;28;45377;-73
2022/07/08 01:30:17;;;;;;;;;4.00;4.00;;;;;16.52;61.93;102619.34;5055770;28;45351;-73
2022/07/08 01:32:44;;;;;;;;;4.00;3.00;;;;;16.46;62.01;102613.81;5059167;28;45336;-73
2022/07/08 01:35:10;;;;;;;;;5.67;3.33;;;;;16.41;61.76;102612.47;5059199;28;45419;-72
2022/07/08 01:37:36;;;;;;;;;4.00;4.00;;;;;16.37;62.45;102626.41;5044655;28;45381;-73
2022/07/08 01:40:02;;;;;;;;;3.67;3.67;;;;;16.32;62.49;102616.19;5059189;28;45403;-73
2022/07/08 01:42:27;;;;;;;;;5.00;3.67;;;;;16.26;62.53;102614.97;5059112;28;46234;-74
2022/07/08 01:44:53;;;;;;;;;5.67;4.67;;;;;16.27;62.73;102619.34;5037809;28;45365;-74
2022/07/08 01:47:19;;;;;;;;;3.33;2.00;;;;;16.20;63.16;102618.34;5055821;28;45549;-73
2022/07/08 01:49:45;;;;;;;;;6.00;3.00;;;;;16.17;62.70;102618.69;5046400;28;45498;-72
2022/07/08 01:52:10;;;;;;;;;4.00;2.33;;;;;16.11;62.93;102616.66;5040581;28;47100;-72
2022/07/08 01:54:36;;;;;;;;;7.00;5.00;;;;;16.11;63.45;102624.69;5059332;28;45271;-73
2022/07/08 01:57:13;;;;;;;;;3.33;3.33;;;;;16.09;63.43;102618.66;5059015;28;45307;-73
2022/07/08 01:59:39;;;;;;;;;3.00;1.00;;;;;16.07;63.35;102623.34;5060392;28;45360;-73
2022/07/08 02:02:04;;;;;;;;;3.67;3.67;;;;;16.03;63.65;102620.16;5048080;28;47427;-72
2022/07/08 02:04:30;;;;;;;;;6.33;3.00;;;;;16.02;63.92;102619.31;5062280;28;45313;-73
2022/07/08 02:06:55;;;;;;;;;4.00;4.00;;;;;16.01;63.30;102617.63;5047196;28;45495;-73
2022/07/08 02:09:20;;;;;;;;;6.00;5.67;;;;;16.01;63.55;102623.00;5062092;28;45408;-73
2022/07/08 02:14:30;;;;;;;;;5.67;3.67;;;;;15.98;63.83;102626.00;5062341;28;45344;-73
2022/07/08 02:16:55;;;;;;;;;3.00;3.00;;;;;15.99;63.76;102633.06;5059478;28;45399;-73
2022/07/08 02:19:21;;;;;;;;;3.33;3.00;;;;;16.00;64.14;102634.75;5062389;28;45432;-73
2022/07/08 02:21:46;;;;;;;;;2.67;2.67;;;;;15.99;63.85;102640.25;5043537;28;47236;-73
2022/07/08 02:24:13;;;;;;;;;5.33;3.33;;;;;16.01;64.07;102649.81;5062103;28;45390;-73
2022/07/08 02:26:39;;;;;;;;;7.00;4.67;;;;;15.94;64.62;102632.69;5062272;28;45327;-73
2022/07/08 02:29:05;;;;;;;;;4.00;4.00;;;;;15.97;64.57;102652.97;5062153;28;45371;-73
2022/07/08 02:31:30;;;;;;;;;5.33;4.33;;;;;15.93;64.69;102648.94;5044073;28;47198;-73
2022/07/08 02:33:56;;;;;;;;;5.33;4.00;;;;;15.88;64.71;102631.50;5059336;28;45995;-74
2022/07/08 02:36:21;;;;;;;;;4.33;4.33;;;;;15.87;64.39;102637.03;5062136;28;45347;-73
2022/07/08 02:38:46;;;;;;;;;3.00;3.00;;;;;15.86;64.81;102641.53;5061659;28;45568;-73
2022/07/08 02:41:12;;;;;;;;;5.00;3.67;;;;;15.83;64.89;102641.03;5062302;28;45321;-73
2022/07/08 02:43:37;;;;;;;;;3.33;3.33;;;;;15.78;65.24;102631.63;5061471;28;51813;-73
2022/07/08 02:46:02;;;;;;;;;4.33;4.00;;;;;15.80;64.92;102631.44;5062122;28;45312;-74
2022/07/08 02:48:27;;;;;;;;;3.00;3.00;;;;;15.78;64.77;102630.78;5061767;28;45307;-73
2022/07/08 02:50:53;;;;;;;;;5.00;3.00;;;;;15.72;65.09;102629.63;5058549;28;47119;-74
2022/07/08 02:53:18;;;;;;;;;3.33;3.33;;;;;15.65;65.02;102623.19;5061804;28;45524;-74
2022/07/08 02:55:43;;;;;;;;;4.67;3.00;;;;;15.62;65.24;102628.88;5061744;28;45551;-73
2022/07/08 02:58:09;;;;;;;;;4.00;4.00;;;;;15.60;65.05;102634.44;5061865;28;45362;-73
2022/07/08 03:00:35;;;;;;;;;5.00;5.00;;;;;15.52;65.33;102626.34;5061783;28;45414;-73
2022/07/08 03:03:00;;;;;;;;;2.67;2.67;;;;;15.43;65.98;102614.75;5061554;28;45378;-73
2022/07/08 03:05:25;;;;;;;;;7.33;4.67;;;;;15.45;65.70;102618.13;5061798;28;45463;-73
2022/07/08 03:07:51;;;;;;;;;3.00;3.00;;;;;15.39;66.01;102616.06;5053828;28;46289;-74
2022/07/08 03:10:16;;;;;;;;;3.33;3.33;;;;;15.38;65.90;102619.72;5060951;28;46257;-73
2022/07/08 03:12:41;;;;;;;;;5.00;3.00;;;;;15.37;65.72;102618.06;5061588;28;45420;-74
2022/07/08 03:15:07;;;;;;;;;5.00;4.00;;;;;15.28;65.88;102611.84;5040093;28;45436;-74
2022/07/08 03:17:33;;;;;;;;;4.33;4.33;;;;;15.21;65.79;102622.34;5063814;28;45584;-73
2022/07/08 03:19:58;;;;;;;;;4.00;4.00;;;;;15.22;66.41;102650.81;5061216;28;46168;-74
2022/07/08 03:22:23;;;;;;;;;3.67;3.67;;;;;15.14;66.19;102638.22;5061013;28;45364;-73
2022/07/08 03:24:49;;;;;;;;;5.67;5.00;;;;;15.16;66.46;102651.44;5061385;28;45422;-73
2022/07/08 03:27:14;;;;;;;;;4.00;4.00;;;;;15.09;66.61;102656.56;5061369;28;45553;-73
2022/07/08 03:29:39;;;;;;;;;4.00;4.00;;;;;15.01;67.00;102646.69;5061307;28;46037;-73
2022/07/08 03:32:05;;;;;;;;;4.33;4.33;;;;;15.05;67.08;102651.72;5061019;28;45383;-73
2022/07/08 03:34:30;;;;;;;;;4.33;4.33;;;;;15.05;67.04;102660.56;5061408;28;45436;-74
2022/07/08 03:36:56;;;;;;;;;5.00;4.00;;;;;15.05;66.62;102657.91;5061048;28;45495;-73
2022/07/08 03:39:21;;;;;;;;;4.00;4.00;;;;;15.04;67.08;102652.69;5060960;28;45741;-73
2022/07/08 03:41:46;;;;;;;;;4.00;4.00;;;;;15.04;67.14;102658.06;5052993;28;45270;-73
2022/07/08 03:44:12;;;;;;;;;5.33;3.00;;;;;15.05;67.16;102649.03;5042827;28;45405;-73
2022/07/08 03:46:37;;;;;;;;;4.33;3.33;;;;;15.04;67.43;102655.38;5060918;28;45483;-73
2022/07/08 03:49:02;;;;;;;;;4.00;4.00;;;;;15.09;67.28;102658.44;5060625;28;45339;-73
2022/07/08 03:51:28;;;;;;;;;4.67;4.67;;;;;15.07;66.69;102663.94;5048849;28;45982;-73
2022/07/08 03:53:53;;;;;;;;;5.00;5.00;;;;;15.04;66.88;102664.25;5042282;28;45353;-73
2022/07/08 03:56:18;;;;;;;;;5.00;4.00;;;;;15.00;67.32;102665.56;5060866;28;45402;-74
2022/07/08 03:58:44;;;;;;;;;5.67;4.33;;;;;15.01;67.27;102662.75;5060904;28;45458;-73
2022/07/08 04:01:09;;;;;;;;;8.00;5.33;;;;;14.99;67.42;102675.44;5060662;28;45351;-73
2022/07/08 04:03:34;;;;;;;;;7.67;5.33;;;;;15.02;67.38;102676.94;5060915;28;45308;-73
2022/07/08 04:06:00;;;;;;;;;5.33;5.33;;;;;15.05;67.41;102675.81;5060969;28;45396;-73
2022/07/08 04:08:26;;;;;;;;;5.00;5.00;;;;;15.06;67.52;102680.16;5057337;28;48165;-73
2022/07/08 04:10:51;;;;;;;;;5.00;5.00;;;;;15.00;67.69;102674.44;5060327;28;45320;-73
2022/07/08 04:13:17;;;;;;;;;5.00;5.00;;;;;14.94;67.82;102668.88;5060523;28;45288;-73
2022/07/08 04:15:42;;;;;;;;;2.67;2.67;;;;;14.93;67.74;102672.56;5062101;28;45339;-74
2022/07/08 04:18:08;;;;;;;;;5.00;5.00;;;;;14.94;67.64;102674.22;5046544;28;45642;-74
2022/07/08 04:20:34;;;;;;;;;4.67;4.00;;;;;14.97;67.72;102684.63;5060576;28;45843;-73
2022/07/08 04:22:59;;;;;;;;;6.00;6.00;;;;;14.93;68.02;102675.22;5052415;28;45602;-74
2022/07/08 04:25:24;;;;;;;;;6.00;4.33;;;;;14.89;67.67;102680.91;5025569;28;47449;-73
2022/07/08 04:27:50;;;;;;;;;6.33;5.00;;;;;14.91;67.96;102690.59;5042314;28;46903;-74
2022/07/08 04:30:15;;;;;;;;;5.67;5.33;;;;;14.91;67.82;102688.78;5059863;28;45376;-73
2022/07/08 04:32:40;;;;;;;;;6.00;6.00;;;;;14.92;67.98;102693.13;5060369;28;45303;-74
2022/07/08 04:35:06;;;;;;;;;6.67;6.00;;;;;14.86;68.42;102689.22;5060184;28;45221;-74
2022/07/08 04:37:31;;;;;;;;;5.33;5.00;;;;;14.94;67.73;102692.97;5041633;28;47929;-73
2022/07/08 04:39:57;;;;;;;;;6.67;5.00;;;;;14.96;67.20;102688.28;5059979;28;45299;-74
2022/07/08 04:42:22;;;;;;;;;5.00;5.00;;;;;14.89;67.93;102678.22;5059976;28;45374;-73
2022/07/08 04:44:48;;;;;;;;;6.00;5.67;;;;;14.93;68.19;102683.25;5060115;28;45291;-74
2022/07/08 04:47:13;;;;;;;;;5.00;5.00;;;;;14.94;68.05;102690.28;5059840;28;45578;-74
2022/07/08 04:49:38;;;;;;;;;5.00;4.00;;;;;14.94;67.91;102684.94;5026033;28;45472;-74
2022/07/08 04:52:06;;;;;;;;;6.00;4.00;;;;;14.99;68.13;102688.81;5051353;28;45553;-73
2022/07/08 04:54:37;;;;;;;;;7.00;7.00;;;;;15.01;68.14;102697.53;5040281;28;45302;-74
2022/07/08 04:57:04;;;;;;;;;7.33;6.67;;;;;15.01;67.75;102705.59;5053757;28;45482;-74
2022/07/08 04:59:29;;;;;;;;;7.67;6.00;;;;;15.00;67.88;102705.72;5054483;28;45501;-73
2022/07/08 05:01:55;;;;;;;;;10.67;6.00;;;;;15.00;68.19;102703.06;5051392;28;45521;-73
2022/07/08 05:04:20;;;;;;;;;8.00;7.00;;;;;14.97;68.43;102693.47;5059672;28;45345;-74
2022/07/08 05:06:45;;;;;;;;;6.00;6.00;;;;;14.98;68.19;102707.72;5044319;28;45318;-74
2022/07/08 05:09:12;;;;;;;;;9.00;8.00;;;;;14.97;68.50;102717.56;5049309;28;45292;-74
2022/07/08 05:11:37;;;;;;;;;6.00;6.00;;;;;14.97;68.61;102717.56;5041980;28;45293;-74
2022/07/08 05:14:03;;;;;;;;;6.00;5.00;;;;;14.97;68.05;102712.22;5049969;28;45272;-76
2022/07/08 05:16:28;;;;;;;;;11.67;6.00;;;;;14.97;68.46;102712.22;5042823;28;46939;-76
2022/07/08 05:18:53;;;;;;;;;6.00;6.00;;;;;14.98;68.64;102719.28;5060222;28;45413;-76
2022/07/08 05:21:19;;;;;;;;;5.33;5.33;;;;;15.02;68.84;102717.97;5060408;28;45351;-76
2022/07/08 05:23:44;;;;;;;;;7.33;6.33;;;;;15.06;68.71;102714.97;5059074;28;52910;-76
2022/07/08 05:26:09;;;;;;;;;10.33;7.33;;;;;15.10;68.69;102713.66;5060264;28;45762;-76
2022/07/08 05:28:35;;;;;;;;;7.33;6.33;;;;;15.15;68.29;102712.19;5059933;28;45340;-77
2022/07/08 05:31:00;;;;;;;;;7.00;7.00;;;;;15.19;68.40;102715.41;5042650;28;45325;-76
2022/07/08 05:33:25;;;;;;;;;8.00;6.33;;;;;15.19;68.38;102712.72;5059370;28;45517;-76
2022/07/08 05:35:51;;;;;;;;;7.00;6.00;;;;;15.22;67.81;102716.91;5053208;28;46081;-76
2022/07/08 05:38:16;;;;;;;;;8.67;7.00;;;;;15.15;68.03;102703.34;5048168;28;45304;-75
2022/07/08 05:40:42;;;;;;;;;5.00;3.67;;;;;15.19;67.95;102715.41;5059710;28;45285;-75
2022/07/08 05:43:07;;;;;;;;;5.33;5.00;;;;;15.23;67.89;102722.13;5049326;28;46136;-77
2022/07/08 05:45:33;;;;;;;;;6.33;6.33;;;;;15.25;67.86;102735.38;5041514;28;47170;-76
2022/07/08 05:47:58;;;;;;;;;7.00;7.00;;;;;15.31;68.41;102734.75;5041069;28;45292;-76
2022/07/08 05:50:24;;;;;;;;;5.67;5.67;;;;;15.28;68.50;102721.66;5059535;28;45311;-76
2022/07/08 05:52:49;;;;;;;;;5.00;5.00;;;;;15.42;68.23;102730.13;5059731;28;45352;-76
2022/07/08 05:55:15;;;;;;;;;6.00;4.33;;;;;15.46;68.63;102723.44;5051183;28;48118;-76
2022/07/08 05:57:40;;;;;;;;;4.33;4.33;;;;;15.51;68.20;102729.19;5041038;28;45343;-76
2022/07/08 06:00:06;;;;;;;;;6.00;6.00;;;;;15.56;67.79;102724.16;5060714;28;45430;-75
2022/07/08 06:02:31;;;;;;;;;1.00;0.00;;;;;15.59;67.55;102717.66;5041633;28;45921;-76
2022/07/08 06:04:57;;;;;;;;;2.67;2.67;;;;;15.65;67.78;102728.56;5054710;28;47233;-75
2022/07/08 06:07:22;;;;;;;;;7.00;7.00;;;;;15.64;67.45;102715.34;5049542;28;45379;-77
2022/07/08 06:09:47;;;;;;;;;5.67;5.67;;;;;15.69;67.98;102725.56;5058799;28;45397;-78
2022/07/08 06:12:13;;;;;;;;;8.00;7.00;;;;;15.76;67.80;102721.25;5058902;28;45359;-78
2022/07/08 06:14:38;;;;;;;;;5.33;4.67;;;;;15.78;67.80;102722.75;5040710;28;47362;-77
2022/07/08 06:17:03;;;;;;;;;8.00;6.33;;;;;15.90;67.65;102723.31;5065112;28;45416;-78
2022/07/08 06:19:29;;;;;;;;;6.33;5.00;;;;;15.96;67.68;102721.88;5058950;28;45793;-77
2022/07/08 06:21:54;;;;;;;;;8.33;8.00;;;;;16.05;67.36;102717.38;5040290;28;46919;-75
2022/07/08 06:24:19;;;;;;;;;8.00;8.00;;;;;16.11;67.22;102719.41;5058599;28;45347;-76
2022/07/08 06:26:46;;;;;;;;;9.00;8.00;;;;;16.17;67.01;102725.13;5058659;28;45383;-77
2022/07/08 06:29:11;;;;;;;;;7.00;6.33;;;;;16.26;66.85;102732.19;5044959;28;45549;-77
2022/07/08 06:31:38;;;;;;;;;23.00;20.67;;;;;16.30;67.01;102732.69;5040146;28;45764;-76
2022/07/08 06:34:04;;;;;;;;;8.00;6.33;;;;;16.34;66.62;102739.44;5058715;28;45347;-76
2022/07/08 06:36:30;;;;;;;;;6.00;4.00;;;;;16.41;66.54;102746.63;5059597;28;45340;-76
2022/07/08 06:38:55;;;;;;;;;8.00;7.33;;;;;16.44;66.27;102737.44;5058964;28;45404;-76
2022/07/08 06:41:20;;;;;;;;;6.33;5.67;;;;;16.53;66.23;102743.66;5060351;28;45547;-76
2022/07/08 06:43:46;;;;;;;;;6.67;5.00;;;;;16.50;65.54;102739.47;5060293;28;46303;-77
2022/07/08 06:46:12;;;;;;;;;10.33;8.00;;;;;16.60;65.84;102749.19;5062480;28;45383;-76
2022/07/08 06:48:37;;;;;;;;;10.67;10.00;;;;;16.65;65.92;102744.19;5063080;28;45419;-76
2022/07/08 06:51:03;;;;;;;;;6.67;6.67;;;;;16.68;65.80;102745.69;5062983;28;45549;-76
2022/07/08 06:54:34;;;;;;;;;8.33;6.33;;;;;16.76;65.47;102753.75;5051154;28;45328;-76
2022/07/08 06:56:14;;;;;;;;;7.00;6.33;;;;;16.81;65.74;102746.03;5049422;28;45315;-76
2022/07/08 06:58:39;;;;;;;;;9.00;5.67;;;;;16.84;65.43;102751.06;5044834;28;45399;-76
2022/07/08 07:01:04;;;;;;;;;6.33;6.33;;;;;16.91;65.48;102749.38;5063045;28;45547;-76
2022/07/08 07:03:30;;;;;;;;;52.75;40.50;;;;;16.99;64.85;102750.38;5063125;28;52138;-77
2022/07/08 07:05:55;;;;;;;;;49.25;38.25;;;;;17.06;64.81;102748.69;5061876;28;45316;-76
2022/07/08 07:08:20;;;;;;;;;25.33;25.00;;;;;17.10;65.07;102742.03;5061747;28;45320;-77
2022/07/08 07:10:45;;;;;;;;;29.33;26.33;;;;;17.23;64.94;102741.50;5062876;28;47078;-77
2022/07/08 07:13:11;;;;;;;;;7.67;7.00;;;;;17.28;64.80;102741.84;5062175;28;46609;-75
2022/07/08 07:15:36;;;;;;;;;5.67;5.00;;;;;17.33;64.26;102735.94;5050599;28;46273;-76
2022/07/08 07:18:01;;;;;;;;;7.33;7.33;;;;;17.44;63.93;102752.72;5068138;28;45362;-76
2022/07/08 07:20:27;;;;;;;;;8.00;8.00;;;;;17.45;64.19;102755.22;5057276;28;45530;-76
2022/07/08 07:22:52;;;;;;;;;15.00;11.67;;;;;17.50;63.55;102744.81;5049045;28;47138;-77
2022/07/08 07:25:17;;;;;;;;;6.00;4.67;;;;;17.53;63.29;102749.84;5060227;28;45383;-76
2022/07/08 07:27:43;;;;;;;;;30.00;27.00;;;;;17.60;63.17;102747.31;5050558;28;45316;-76
2022/07/08 07:30:08;;;;;;;;;50.75;39.00;;;;;17.61;63.37;102737.41;5042838;28;45969;-77
2022/07/08 07:32:34;;;;;;;;;29.00;26.33;;;;;17.74;63.12;102748.44;5061010;28;46700;-76
2022/07/08 07:34:59;;;;;;;;;12.67;10.33;;;;;17.86;62.88;102753.44;5061793;28;45295;-76
2022/07/08 07:37:24;;;;;;;;;13.67;13.00;;;;;17.96;62.65;102754.06;5062472;28;45958;-76
2022/07/08 07:39:50;;;;;;;;;6.67;6.67;;;;;18.02;62.15;102748.00;5061478;28;52993;-76
2022/07/08 07:42:15;;;;;;;;;6.67;6.67;;;;;18.10;61.64;102748.97;5057932;28;46949;-75
2022/07/08 07:44:40;;;;;;;;;10.00;7.00;;;;;18.15;61.78;102747.47;5062017;28;45423;-76
2022/07/08 07:47:06;;;;;;;;;45.25;38.00;;;;;18.20;61.26;102749.63;5061130;28;46267;-76
2022/07/08 07:49:31;;;;;;;;;75.75;65.25;;;;;18.23;61.34;102746.56;5061374;28;45284;-77
2022/07/08 07:51:56;;;;;;;;;66.50;53.75;;;;;18.33;61.28;102743.66;5042708;28;46850;-76
2022/07/08 07:54:22;;;;;;;;;11.33;10.33;;;;;18.42;60.72;102748.00;5061560;28;45390;-76
2022/07/08 07:56:47;;;;;;;;;9.33;8.00;;;;;18.51;60.09;102745.22;5060802;28;45433;-76
2022/07/08 07:59:13;;;;;;;;;9.00;8.67;;;;;18.52;59.74;102736.13;5062440;28;45688;-75
2022/07/08 08:01:38;;;;;;;;;11.00;10.33;;;;;18.59;59.61;102747.03;5062027;28;45712;-75
2022/07/08 08:04:04;;;;;;;;;9.33;8.67;;;;;18.68;59.36;102745.97;5041887;28;45403;-76
2022/07/08 08:06:29;;;;;;;;;11.33;9.67;;;;;18.73;59.54;102742.72;5058075;28;45466;-75
2022/07/08 08:08:56;;;;;;;;;9.67;9.67;;;;;18.85;59.47;102748.53;5063011;28;45383;-77
2022/07/08 08:11:21;;;;;;;;;12.00;12.00;;;;;18.88;58.42;102740.91;5063068;28;45327;-77
2022/07/08 08:13:46;;;;;;;;;12.00;11.00;;;;;18.92;58.91;102739.53;5062378;28;45177;-76
2022/07/08 08:16:12;;;;;;;;;11.67;9.67;;;;;18.98;58.97;102742.53;5043514;28;45262;-76
2022/07/08 08:18:38;;;;;;;;;13.00;10.67;;;;;19.03;58.37;102750.88;5057180;28;46290;-78
2022/07/08 08:21:04;;;;;;;;;12.67;12.67;;;;;19.11;57.93;102747.31;5061526;28;46651;-76
2022/07/08 08:23:30;;;;;;;;;14.67;12.67;;;;;19.17;57.29;102742.03;5060196;28;45677;-75
2022/07/08 08:25:55;;;;;;;;;11.67;10.33;;;;;19.26;56.97;102736.56;5062288;28;45297;-76
2022/07/08 08:28:21;;;;;;;;;9.33;9.33;;;;;19.36;56.94;102750.59;5060635;28;45434;-76
2022/07/08 08:30:46;;;;;;;;;11.67;11.67;;;;;19.36;56.99;102739.00;5046591;28;46337;-76
2022/07/08 08:33:11;;;;;;;;;14.33;12.33;;;;;19.42;56.70;102743.63;5061100;28;45467;-77
2022/07/08 08:35:37;;;;;;;;;11.67;11.33;;;;;19.48;56.61;102739.38;5061708;28;45447;-76
2022/07/08 08:38:02;;;;;;;;;12.33;10.67;;;;;19.52;56.65;102736.09;5050221;28;47110;-76
2022/07/08 08:40:28;;;;;;;;;8.33;6.33;;;;;19.52;56.21;102728.00;5061176;28;45461;-77
2022/07/08 08:42:54;;;;;;;;;14.33;14.33;;;;;19.55;55.89;102722.25;5063316;28;45319;-77
2022/07/08 08:45:19;;;;;;;;;10.00;10.00;;;;;19.61;56.14;102722.53;5062147;28;45364;-77
2022/07/08 08:47:47;;;;;;;;;11.33;11.33;;;;;19.63;55.71;102709.72;5054998;28;45499;-77
2022/07/08 08:53:01;;;;;;;;;27.33;25.33;;;;;19.81;55.59;102720.94;5061470;28;45533;-76
2022/07/08 08:55:31;;;;;;;;;36.33;32.00;;;;;19.88;55.45;102710.25;5039189;28;45379;-76
2022/07/08 08:57:58;;;;;;;;;11.67;11.67;;;;;19.98;55.02;102709.06;5045173;28;47081;-77
2022/07/08 09:00:26;;;;;;;;;10.00;10.00;;;;;20.01;54.06;102701.47;5060236;28;45192;-77
2022/07/08 09:02:52;;;;;;;;;12.67;12.67;;;;;20.11;54.68;102694.94;5060367;28;45344;-77
2022/07/08 09:05:19;;;;;;;;;15.00;13.67;;;;;20.18;54.39;102696.66;5042865;28;45343;-77
2022/07/08 09:07:44;;;;;;;;;23.00;21.00;;;;;20.26;54.34;102692.19;5035046;28;45510;-77
2022/07/08 09:10:11;;;;;;;;;13.33;12.67;;;;;20.37;53.86;102702.47;5042326;28;47174;-76
2022/07/08 09:12:36;;;;;;;;;15.00;14.67;;;;;20.42;53.52;102693.81;5061480;28;45355;-77
2022/07/08 09:15:02;;;;;;;;;11.67;11.33;;;;;20.51;53.51;102698.06;5063775;28;45247;-76
2022/07/08 09:17:27;;;;;;;;;13.67;12.67;;;;;20.53;53.35;102698.69;5067641;28;45442;-76
2022/07/08 09:19:53;;;;;;;;;11.00;11.00;;;;;20.59;53.34;102693.53;5062448;28;45408;-77
2022/07/08 09:22:23;;;;;;;;;11.67;10.67;;;;;20.64;52.70;102691.91;5049221;28;46015;-77
2022/07/08 09:24:49;;;;;;;;;44.67;36.33;;;;;20.72;52.76;102695.50;5063638;28;45300;-76
2022/07/08 09:27:15;;;;;;;;;24.00;21.33;;;;;20.75;52.59;102687.88;5046160;28;46320;-75
2022/07/08 09:29:59;;;;;;;;;33.00;30.67;;;;;20.83;52.37;102683.34;5062778;28;45516;-76
2022/07/08 09:32:25;;;;;;;;;64.00;50.00;;;;;20.94;52.76;102686.38;5046230;28;45265;-76
2022/07/08 09:34:50;;;;;;;;;19.67;16.33;;;;;21.04;51.94;102688.72;5051786;28;45354;-77
2022/07/08 09:37:18;;;;;;;;;41.33;33.33;;;;;21.12;51.65;102678.78;5041909;28;45827;-77
2022/07/08 09:39:45;;;;;;;;;58.50;47.25;;;;;21.24;52.01;102688.00;5059443;28;46614;-76
2022/07/08 09:42:13;;;;;;;;;39.33;32.67;;;;;21.35;51.52;102675.81;5042002;28;45360;-76
2022/07/08 09:44:38;;;;;;;;;37.67;33.67;;;;;21.44;50.79;102677.31;5047116;28;45273;-77
2022/07/08 09:47:09;;;;;;;;;19.33;17.33;;;;;21.57;50.46;102681.09;5042353;28;46419;-77
2022/07/08 09:49:35;;;;;;;;;9.67;9.67;;;;;21.62;50.30;102666.97;5060740;28;46294;-76
2022/07/08 09:52:00;;;;;;;;;17.33;15.00;;;;;21.73;50.42;102673.69;5059654;28;45409;-77
2022/07/08 09:54:27;;;;;;;;;18.33;15.67;;;;;21.86;50.53;102675.63;5058370;28;45332;-76
2022/07/08 09:57:00;;;;;;;;;12.00;10.00;;;;;22.01;49.43;102673.59;5061113;28;45629;-76
2022/07/08 09:59:26;;;;;;;;;31.00;29.67;;;;;22.07;49.82;102670.06;5041122;28;46597;-77
2022/07/08 10:01:52;;;;;;;;;23.00;21.33;;;;;22.12;49.52;102666.72;5059353;28;45406;-76
2022/07/08 10:04:18;;;;;;;;;8.67;8.67;;;;;22.32;48.16;102682.16;5056248;28;45382;-77
2022/07/08 10:06:44;;;;;;;;;25.67;25.00;;;;;22.38;47.74;102673.22;5056680;28;45549;-76
2022/07/08 10:09:09;;;;;;;;;10.00;10.00;;;;;22.56;48.17;102675.31;5058934;28;45455;-77
2022/07/08 10:11:37;;;;;;;;;34.00;30.33;;;;;22.65;47.81;102667.84;5059133;28;45376;-76
2022/07/08 10:14:04;;;;;;;;;9.33;9.33;;;;;22.79;47.12;102670.53;5047022;28;45379;-77
2022/07/08 10:16:30;;;;;;;;;69.75;56.00;;;;;22.94;46.54;102668.44;5047673;28;46410;-77
2022/07/08 10:18:57;;;;;;;;;32.67;29.67;;;;;23.08;46.65;102669.22;5058846;28;45436;-77
2022/07/08 10:21:26;;;;;;;;;11.67;10.67;;;;;23.17;46.15;102660.88;5062251;28;45331;-76
2022/07/08 10:23:54;;;;;;;;;8.00;8.00;;;;;23.24;45.50;102652.72;5043775;28;45555;-76
2022/07/08 10:26:28;;;;;;;;;10.00;9.33;;;;;23.36;46.30;102661.00;5034088;28;46225;-77
2022/07/08 10:29:08;;;;;;;;;14.00;13.67;;;;;23.49;45.48;102657.47;5062022;28;46383;-77
2022/07/08 10:31:53;;;;;;;;;30.33;27.00;;;;;23.60;45.58;102655.94;5062893;28;45319;-76
2022/07/08 10:34:21;;;;;;;;;12.33;12.33;;;;;23.83;45.49;102664.38;5051800;28;45336;-76
2022/07/08 10:36:51;;;;;;;;;48.67;39.00;;;;;24.00;44.90;102657.63;5056136;28;45513;-77
2022/07/08 10:39:31;;;;;;;;;34.33;31.00;;;;;24.23;44.03;102658.94;5063097;28;46205;-76
2022/07/08 10:41:59;;;;;;;;;38.33;31.33;;;;;24.40;43.23;102657.34;5063815;28;45328;-76
2022/07/08 10:44:48;;;;;;;;;33.33;29.33;;;;;24.67;42.80;102656.28;5062770;28;45277;-77
2022/07/08 10:47:23;;;;;;;;;23.67;22.00;;;;;24.92;43.11;102658.13;5054005;28;45491;-77
2022/07/08 10:49:50;;;;;;;;;7.67;7.67;;;;;25.03;42.09;102657.41;5061909;28;45720;-78
2022/07/08 10:52:30;;;;;;;;;40.00;33.00;;;;;25.24;42.43;102659.88;5061674;28;45419;-76
2022/07/08 10:55:13;;;;;;;;;7.33;7.00;;;;;25.47;41.61;102651.03;5044416;28;45407;-77
2022/07/08 10:57:51;;;;;;;;;11.33;10.33;;;;;25.61;41.00;102653.63;5064406;28;45562;-77
2022/07/08 11:00:16;;;;;;;;;50.33;41.67;;;;;25.79;40.96;102653.56;5041997;28;48714;-76
2022/07/08 11:02:45;;;;;;;;;21.67;19.33;;;;;26.04;40.54;102657.19;5059976;28;45390;-78
2022/07/08 11:05:32;;;;;;;;;6.00;6.00;;;;;26.25;39.96;102654.97;5063268;28;45324;-77
2022/07/08 11:08:19;;;;;;;;;5.67;5.67;;;;;26.34;39.52;102651.69;5064659;28;45512;-76
2022/07/08 11:10:45;;;;;;;;;8.00;8.00;;;;;26.39;39.19;102640.09;5050745;28;47166;-77
2022/07/08 11:13:11;;;;;;;;;11.67;11.00;;;;;26.53;38.98;102645.31;5043376;28;45426;-77
2022/07/08 11:15:37;;;;;;;;;103.50;94.25;;;;;26.66;39.21;102636.06;5064431;28;45347;-77
2022/07/08 11:18:03;;;;;;;;;50.00;37.67;;;;;26.84;38.93;102648.72;5069474;28;45282;-77
2022/07/08 11:20:30;;;;;;;;;25.67;23.33;;;;;26.91;38.72;102635.81;5062279;28;46080;-77
2022/07/08 11:22:56;;;;;;;;;6.67;6.33;;;;;27.14;38.00;102649.66;5062006;28;45224;-77